Time;durP1;ratioP1;P1;durP2;ratioP2;P2;SDS_P1;SDS_P2;PMS_P1;PMS_P2;Temp;Humidity;BMP_temperature;BMP_pressure;BME280_temperature;BME280_humidity;BME280_pressure;Samples;Min_cycle;Max_cycle;Signal;HPM_P1;HPM_P2
2023/02/25 00:00:44;;;;;;;15.20;2.20;;;3.50;99.90;;;;;;6216440;23;20492;-94
2023/02/25 00:03:10;;;;;;;10.43;3.67;;;3.50;99.90;;;;;;6217218;23;20016;-93
2023/02/25 00:05:40;;;;;;;9.52;1.50;;;3.50;99.90;;;;;;6216522;23;20016;-93
2023/02/25 00:08:06;;;;;;;12.25;1.55;;;3.50;99.90;;;;;;6215789;23;20004;-93
2023/02/25 00:10:32;;;;;;;9.88;1.45;;;3.50;99.90;;;;;;6216513;23;20031;-93
2023/02/25 00:12:58;;;;;;;22.02;2.63;;;3.40;99.90;;;;;;6216271;23;20012;-93
2023/02/25 00:15:24;;;;;;;11.65;1.98;;;3.40;99.90;;;;;;6218695;23;20324;-92
2023/02/25 00:17:50;;;;;;;8.45;1.90;;;3.40;99.90;;;;;;6217584;23;20383;-92
2023/02/25 00:20:19;;;;;;;8.65;1.15;;;3.40;99.90;;;;;;6215972;23;20000;-93
2023/02/25 00:22:46;;;;;;;16.65;1.50;;;3.30;99.90;;;;;;6217190;23;20444;-92
2023/02/25 00:25:13;;;;;;;13.48;2.83;;;3.30;99.90;;;;;;6218897;23;20020;-94
2023/02/25 00:27:40;;;;;;;18.13;1.90;;;3.30;99.90;;;;;;6220319;23;20071;-92
2023/02/25 00:30:06;;;;;;;10.55;1.92;;;3.30;99.90;;;;;;6216225;23;20009;-93
2023/02/25 00:32:31;;;;;;;10.77;1.80;;;3.40;99.90;;;;;;6216412;23;20000;-93
2023/02/25 00:34:57;;;;;;;7.63;1.52;;;3.40;99.90;;;;;;6216058;23;20032;-92
2023/02/25 00:37:23;;;;;;;9.55;1.95;;;3.40;99.90;;;;;;6216234;23;20016;-94
2023/02/25 00:39:48;;;;;;;12.32;1.60;;;3.40;99.90;;;;;;6217483;23;20008;-93
2023/02/25 00:42:16;;;;;;;13.00;1.80;;;3.40;99.90;;;;;;6218474;23;20000;-92
2023/02/25 00:44:47;;;;;;;4.55;1.60;;;3.40;99.90;;;;;;6216035;23;20008;-93
2023/02/25 00:47:13;;;;;;;;;;;3.40;99.90;;;;;;6216101;23;20004;-93
2023/02/25 00:49:39;;;;;;;10.48;1.98;;;3.30;99.90;;;;;;6217179;23;19904;-93
2023/02/25 00:52:05;;;;;;;9.27;1.83;;;3.30;99.90;;;;;;6216364;23;20034;-93
2023/02/25 00:54:33;;;;;;;8.57;1.83;;;3.20;99.90;;;;;;6216410;23;20436;-94
2023/02/25 00:56:58;;;;;;;13.18;1.75;;;3.20;99.90;;;;;;6215365;23;20019;-94
2023/02/25 00:59:24;;;;;;;7.97;1.40;;;3.20;99.90;;;;;;6216099;23;20004;-92
2023/02/25 01:01:50;;;;;;;15.85;1.92;;;3.20;99.90;;;;;;6217470;23;20012;-92
2023/02/25 01:04:15;;;;;;;9.68;1.70;;;3.20;99.90;;;;;;6230433;23;20048;-91
2023/02/25 01:06:41;;;;;;;10.20;1.55;;;3.20;99.90;;;;;;6228576;23;20118;-94
2023/02/25 01:09:12;;;;;;;6.68;1.42;;;3.20;99.90;;;;;;6217349;23;20013;-93
2023/02/25 01:11:40;;;;;;;13.85;1.30;;;3.20;99.90;;;;;;6230613;23;20444;-94
2023/02/25 01:14:10;;;;;;;8.57;1.60;;;3.20;99.90;;;;;;6221263;23;20000;-92
2023/02/25 01:16:36;;;;;;;14.15;1.58;;;3.20;99.90;;;;;;6222239;23;20004;-93
2023/02/25 01:19:06;;;;;;;10.32;1.50;;;3.20;99.90;;;;;;6221227;23;20008;-93
2023/02/25 01:21:35;;;;;;;18.42;1.88;;;3.20;99.90;;;;;;6221545;23;20428;-93
2023/02/25 01:24:07;;;;;;;8.15;1.50;;;3.20;99.90;;;;;;6225174;23;20016;-94
2023/02/25 01:26:36;;;;;;;11.30;1.90;;;3.20;99.90;;;;;;6222718;23;20008;-94
2023/02/25 01:29:06;;;;;;;6.55;1.40;;;3.10;99.90;;;;;;6222435;23;20004;-91
2023/02/25 01:31:31;;;;;;;10.93;1.58;;;3.10;99.90;;;;;;6222324;23;20019;-93
2023/02/25 01:33:58;;;;;;;16.65;1.50;;;3.10;99.90;;;;;;6221591;23;20000;-93
2023/02/25 01:36:26;;;;;;;10.98;1.58;;;3.10;99.90;;;;;;6223195;23;20011;-93
2023/02/25 01:38:51;;;;;;;11.88;1.65;;;3.10;99.90;;;;;;6224641;23;20008;-93
2023/02/25 01:41:17;;;;;;;10.77;1.73;;;3.10;99.90;;;;;;6220684;23;20007;-92
2023/02/25 01:44:00;;;;;;;15.10;2.42;;;3.10;99.90;;;;;;6248955;23;20020;-94
2023/02/25 01:46:26;;;;;;;9.93;1.45;;;3.10;99.90;;;;;;6223453;23;20012;-92
2023/02/25 01:48:52;;;;;;;8.38;1.30;;;3.10;99.90;;;;;;6222916;23;20428;-92
2023/02/25 01:51:17;;;;;;;13.82;1.50;;;3.10;99.90;;;;;;6223073;23;20023;-92
2023/02/25 01:53:46;;;;;;;6.57;1.30;;;3.10;99.90;;;;;;6225524;23;20432;-94
2023/02/25 01:56:17;;;;;;;11.25;1.77;;;3.10;99.90;;;;;;6229100;23;20023;-93
2023/02/25 01:58:43;;;;;;;;;;;3.10;99.90;;;;;;6232816;23;20004;-92
2023/02/25 02:01:14;;;;;;;10.82;1.50;;;3.10;99.90;;;;;;6233449;23;19928;-92
2023/02/25 02:03:40;;;;;;;13.13;1.63;;;3.10;99.90;;;;;;6243329;23;20020;-91
2023/02/25 02:06:29;;;;;;;9.93;1.40;;;3.00;99.90;;;;;;6245589;23;20016;-95
2023/02/25 02:08:55;;;;;;;11.95;1.77;;;3.00;99.90;;;;;;6240602;23;20015;-93
2023/02/25 02:11:20;;;;;;;10.13;1.50;;;2.90;99.90;;;;;;6240778;23;20072;-93
2023/02/25 02:13:52;;;;;;;8.07;1.45;;;2.90;99.90;;;;;;6238305;23;20011;-91
2023/02/25 02:16:33;;;;;;;9.35;1.30;;;2.90;99.90;;;;;;6235699;23;20000;-92
2023/02/25 02:19:05;;;;;;;;;;;2.80;99.90;;;;;;6237428;23;20010;-92
2023/02/25 02:21:43;;;;;;;6.53;1.92;;;2.80;99.90;;;;;;6261700;23;19911;-93
2023/02/25 02:24:22;;;;;;;9.35;1.38;;;2.70;99.90;;;;;;6228054;23;20008;-93
2023/02/25 02:26:56;;;;;;;8.43;1.73;;;2.70;99.90;;;;;;6229437;23;20015;-93
2023/02/25 02:30:00;;;;;;;10.85;1.30;;;2.60;99.90;;;;;;6226980;23;20394;-92
2023/02/25 02:32:35;;;;;;;7.43;1.15;;;2.60;99.90;;;;;;6225073;23;20004;-93
2023/02/25 02:35:34;;;;;;;7.45;1.45;;;2.60;99.90;;;;;;6221391;23;20009;-93
2023/02/25 02:38:18;;;;;;;8.13;1.48;;;2.60;99.90;;;;;;6180200;23;20004;-91
2023/02/25 02:40:46;;;;;;;16.33;1.50;;;2.60;99.90;;;;;;6227796;23;20004;-93
2023/02/25 02:43:27;;;;;;;23.75;2.42;;;2.60;99.90;;;;;;6244055;23;20048;-91
2023/02/25 02:45:58;;;;;;;16.27;1.50;;;2.60;99.90;;;;;;6235935;23;20047;-91
2023/02/25 02:48:27;;;;;;;10.98;1.88;;;2.60;99.90;;;;;;6233328;23;20000;-93
2023/02/25 02:51:09;;;;;;;14.38;2.00;;;2.60;99.90;;;;;;6229723;23;20011;-93
2023/02/25 02:53:47;;;;;;;14.82;1.30;;;2.70;99.90;;;;;;6224676;23;20095;-94
2023/02/25 02:56:17;;;;;;;4.70;0.98;;;2.80;99.90;;;;;;6224492;23;20004;-92
2023/02/25 02:58:51;;;;;;;6.90;1.50;;;2.80;99.90;;;;;;6221555;23;20008;-95
2023/02/25 03:01:25;;;;;;;9.30;1.65;;;2.80;99.90;;;;;;6219736;23;20079;-93
2023/02/25 03:04:04;;;;;;;8.70;1.27;;;2.80;99.90;;;;;;6219843;23;20012;-91
2023/02/25 03:06:33;;;;;;;14.43;1.70;;;2.80;99.90;;;;;;6220720;23;20011;-94
2023/02/25 03:09:24;;;;;;;10.13;1.45;;;2.90;99.90;;;;;;6225268;23;20001;-94
2023/02/25 03:11:50;;;;;;;12.80;3.22;;;2.90;99.90;;;;;;6221429;23;20011;-94
2023/02/25 03:14:16;;;;;;;16.27;1.73;;;2.80;99.90;;;;;;6220137;23;20011;-94
2023/02/25 03:16:53;;;;;;;19.88;2.45;;;2.80;99.90;;;;;;6219439;23;20012;-94
2023/02/25 03:19:40;;;;;;;8.38;2.28;;;2.80;99.90;;;;;;6219500;23;20015;-95
2023/02/25 03:22:16;;;;;;;9.35;1.60;;;2.80;99.90;;;;;;6220608;23;20000;-94
2023/02/25 03:24:51;;;;;;;7.82;1.42;;;2.70;99.90;;;;;;6221263;23;20015;-94
2023/02/25 03:27:25;;;;;;;11.63;1.85;;;2.70;99.90;;;;;;6231906;23;20000;-93
2023/02/25 03:29:52;;;;;;;11.23;1.70;;;2.70;99.90;;;;;;6222719;23;20015;-93
2023/02/25 03:32:19;;;;;;;14.52;2.35;;;2.70;99.90;;;;;;6224621;23;20082;-93
2023/02/25 03:34:48;;;;;;;7.47;1.67;;;2.70;99.90;;;;;;6223931;23;20339;-94
2023/02/25 03:37:22;;;;;;;12.35;1.80;;;2.60;99.90;;;;;;6223505;23;20008;-94
2023/02/25 03:39:54;;;;;;;11.95;1.58;;;2.60;99.90;;;;;;6222633;23;20008;-94
2023/02/25 03:42:24;;;;;;;12.05;2.10;;;2.60;99.90;;;;;;6223822;23;20004;-92
2023/02/25 03:44:53;;;;;;;13.17;1.87;;;2.60;99.90;;;;;;6223007;23;20098;-93
2023/02/25 03:47:21;;;;;;;12.07;2.25;;;2.60;99.90;;;;;;6222860;23;20000;-95
2023/02/25 03:49:59;;;;;;;20.50;1.88;;;2.60;99.90;;;;;;6223829;23;20010;-94
2023/02/25 03:52:26;;;;;;;15.05;1.95;;;2.60;99.90;;;;;;6223945;23;20008;-95
2023/02/25 03:54:54;;;;;;;12.38;2.67;;;2.60;99.90;;;;;;6223422;23;20012;-95
2023/02/25 03:57:24;;;;;;;11.57;1.90;;;2.60;99.90;;;;;;6223862;23;20012;-94
2023/02/25 03:59:55;;;;;;;12.50;2.30;;;2.60;99.90;;;;;;6224147;23;20011;-93
2023/02/25 04:02:28;;;;;;;13.93;2.00;;;2.60;99.90;;;;;;6224078;23;20063;-94
2023/02/25 04:04:54;;;;;;;19.55;1.88;;;2.60;99.90;;;;;;6223612;23;20016;-92
2023/02/25 04:07:20;;;;;;;16.67;2.22;;;2.70;99.90;;;;;;6223337;23;20011;-94
2023/02/25 04:09:45;;;;;;;16.85;1.83;;;2.70;99.90;;;;;;6222046;23;20008;-92
2023/02/25 04:12:11;;;;;;;15.52;1.83;;;2.70;99.90;;;;;;6227140;23;20431;-94
2023/02/25 04:14:37;;;;;;;10.48;2.03;;;2.80;99.90;;;;;;6222956;23;20004;-94
2023/02/25 04:17:04;;;;;;;15.40;2.47;;;2.80;99.90;;;;;;6221776;23;20000;-94
2023/02/25 04:19:30;;;;;;;12.57;1.52;;;2.80;99.90;;;;;;6222305;23;20440;-93
2023/02/25 04:21:56;;;;;;;15.85;3.30;;;2.80;99.90;;;;;;6220757;23;20019;-93
2023/02/25 04:24:21;;;;;;;14.50;2.35;;;2.90;99.90;;;;;;6220840;23;20011;-95
2023/02/25 04:26:47;;;;;;;11.48;1.80;;;2.90;99.90;;;;;;6248396;23;20152;-95
2023/02/25 04:29:12;;;;;;;14.32;2.55;;;3.00;99.90;;;;;;6222313;23;20332;-95
2023/02/25 04:31:38;;;;;;;14.63;2.03;;;3.00;99.90;;;;;;6222543;23;20011;-94
2023/02/25 04:34:03;;;;;;;15.73;1.73;;;3.00;99.90;;;;;;6249235;23;20050;-93
2023/02/25 04:36:34;;;;;;;15.80;2.10;;;3.10;99.90;;;;;;6223679;23;20004;-94
2023/02/25 04:39:03;;;;;;;15.13;2.40;;;3.10;99.90;;;;;;6223444;23;20102;-95
2023/02/25 04:41:31;;;;;;;14.23;1.75;;;3.10;99.90;;;;;;6222794;23;20000;-94
2023/02/25 04:43:57;;;;;;;12.73;1.95;;;3.10;99.90;;;;;;6221856;23;20038;-94
2023/02/25 04:46:24;;;;;;;20.02;2.03;;;3.10;99.90;;;;;;6221030;23;20018;-94
2023/02/25 04:48:49;;;;;;;15.27;1.92;;;3.10;99.90;;;;;;6222169;23;20036;-94
2023/02/25 04:51:16;;;;;;;6.50;1.50;;;3.00;99.90;;;;;;6225402;23;20015;-95
2023/02/25 04:53:42;;;;;;;15.20;2.38;;;3.00;99.90;;;;;;6261827;22;19984;-91
2023/02/25 04:56:08;;;;;;;10.27;2.28;;;3.00;99.90;;;;;;6245794;23;20013;-93
2023/02/25 04:58:36;;;;;;;12.07;1.83;;;3.00;99.90;;;;;;6228714;23;20083;-92
2023/02/25 05:01:04;;;;;;;8.88;2.13;;;3.00;99.90;;;;;;6226405;23;20039;-93
2023/02/25 05:03:31;;;;;;;19.17;2.20;;;2.90;99.90;;;;;;6226218;23;20111;-92
2023/02/25 05:05:57;;;;;;;23.08;2.28;;;2.90;99.90;;;;;;6224758;23;20012;-93
2023/02/25 05:08:24;;;;;;;10.68;2.10;;;2.90;99.90;;;;;;6223541;23;20004;-94
2023/02/25 05:10:49;;;;;;;12.82;2.22;;;2.90;99.90;;;;;;6221781;23;20072;-94
2023/02/25 05:13:16;;;;;;;13.82;1.98;;;2.90;99.90;;;;;;6222031;23;20016;-93
2023/02/25 05:15:41;;;;;;;14.68;2.30;;;2.90;99.90;;;;;;6225075;23;20270;-95
2023/02/25 05:18:07;;;;;;;16.63;2.45;;;2.90;99.90;;;;;;6229646;23;20004;-93
2023/02/25 05:20:33;;;;;;;16.70;2.05;;;2.90;99.90;;;;;;6225783;23;20027;-95
2023/02/25 05:22:59;;;;;;;13.57;1.75;;;2.90;99.90;;;;;;6221327;23;20008;-95
2023/02/25 05:25:24;;;;;;;6.65;1.80;;;2.90;99.90;;;;;;6221543;23;20107;-95
2023/02/25 05:27:50;;;;;;;11.27;1.60;;;2.90;99.90;;;;;;6222169;23;20034;-94
2023/02/25 05:30:16;;;;;;;12.52;1.92;;;2.90;99.90;;;;;;6250289;23;20027;-93
2023/02/25 05:32:42;;;;;;;9.00;1.30;;;2.90;99.90;;;;;;6224823;23;20012;-94
2023/02/25 05:35:08;;;;;;;15.35;2.20;;;2.90;99.90;;;;;;6221734;23;20037;-95
2023/02/25 05:37:35;;;;;;;11.52;1.92;;;2.90;99.90;;;;;;6222034;23;20010;-94
2023/02/25 05:40:02;;;;;;;14.57;1.75;;;2.90;99.90;;;;;;6224852;23;20008;-93
2023/02/25 05:42:28;;;;;;;14.75;2.00;;;3.00;99.90;;;;;;6221139;23;20000;-93
2023/02/25 05:44:54;;;;;;;13.00;2.13;;;2.90;99.90;;;;;;6219920;23;20062;-93
2023/02/25 05:47:20;;;;;;;30.40;2.63;;;3.00;99.90;;;;;;6221926;23;20126;-93
2023/02/25 05:49:45;;;;;;;20.85;2.50;;;3.00;99.90;;;;;;6223294;23;20019;-95
2023/02/25 05:52:12;;;;;;;17.70;1.58;;;3.10;99.90;;;;;;6223459;23;20577;-94
2023/02/25 05:54:38;;;;;;;6.35;1.10;;;3.00;99.90;;;;;;6220911;23;19996;-93
2023/02/25 05:57:04;;;;;;;12.63;1.80;;;3.00;99.90;;;;;;6222552;23;20042;-92
2023/02/25 05:59:30;;;;;;;11.07;2.08;;;3.00;99.90;;;;;;6224347;23;20086;-92
2023/02/25 06:01:56;;;;;;;12.45;2.33;;;2.90;99.90;;;;;;6225436;23;20119;-94
2023/02/25 06:04:22;;;;;;;22.23;2.67;;;2.90;99.90;;;;;;6226878;23;20015;-93
2023/02/25 06:06:50;;;;;;;14.35;1.83;;;3.00;99.90;;;;;;6228968;23;20051;-93
2023/02/25 06:09:19;;;;;;;13.15;1.95;;;2.90;99.90;;;;;;6238325;23;19992;-90
2023/02/25 06:11:47;;;;;;;17.02;1.98;;;2.90;99.90;;;;;;6246533;23;20004;-91
2023/02/25 06:14:14;;;;;;;16.98;1.80;;;2.90;99.90;;;;;;6241334;23;20023;-93
2023/02/25 06:16:40;;;;;;;16.05;2.13;;;2.80;99.90;;;;;;6224654;23;20012;-95
2023/02/25 06:19:07;;;;;;;17.73;2.25;;;2.80;99.90;;;;;;6222167;23;20088;-93
2023/02/25 06:21:33;;;;;;;8.63;1.58;;;2.70;99.90;;;;;;6221559;23;20034;-94
2023/02/25 06:24:01;;;;;;;13.23;1.85;;;2.70;99.90;;;;;;6221721;23;20317;-94
2023/02/25 06:26:27;;;;;;;12.05;2.40;;;2.70;99.90;;;;;;6221510;23;20038;-92
2023/02/25 06:28:53;;;;;;;11.95;1.83;;;2.60;99.90;;;;;;6221860;23;20000;-93
2023/02/25 06:31:21;;;;;;;16.88;2.72;;;2.60;99.90;;;;;;6222025;23;20381;-93
2023/02/25 06:33:49;;;;;;;16.35;3.80;;;2.60;99.90;;;;;;6221866;23;20098;-93
2023/02/25 06:36:16;;;;;;;17.02;1.83;;;2.50;99.90;;;;;;6221754;23;20083;-94
2023/02/25 06:38:44;;;;;;;15.15;2.47;;;2.50;99.90;;;;;;6220487;23;20008;-93
2023/02/25 06:41:14;;;;;;;12.85;1.80;;;2.50;99.90;;;;;;6221288;23;20008;-92
2023/02/25 06:43:40;;;;;;;17.58;2.85;;;2.50;99.90;;;;;;6221201;23;20447;-95
2023/02/25 06:46:09;;;;;;;10.65;2.10;;;2.50;99.90;;;;;;6220327;23;20016;-94
2023/02/25 06:48:34;;;;;;;13.10;2.83;;;2.50;99.90;;;;;;6230067;23;20004;-92
2023/02/25 06:51:01;;;;;;;18.10;2.22;;;2.60;99.90;;;;;;6234831;23;20170;-91
2023/02/25 06:53:27;;;;;;;18.80;1.95;;;2.60;99.90;;;;;;6234064;23;20007;-91
2023/02/25 06:55:53;;;;;;;14.23;1.80;;;2.60;99.90;;;;;;6232999;23;20108;-92
2023/02/25 06:58:19;;;;;;;16.52;1.70;;;2.60;99.90;;;;;;6233318;23;20000;-93
2023/02/25 07:00:45;;;;;;;13.70;2.05;;;2.70;99.90;;;;;;6261838;23;20016;-95
2023/02/25 07:03:12;;;;;;;18.35;2.05;;;2.70;99.90;;;;;;6231535;23;20011;-92
2023/02/25 07:05:38;;;;;;;14.45;2.25;;;2.70;99.90;;;;;;6232300;23;20043;-94
2023/02/25 07:08:04;;;;;;;14.95;2.20;;;2.70;99.90;;;;;;6231996;23;20004;-94
2023/02/25 07:10:29;;;;;;;10.63;1.60;;;2.80;99.90;;;;;;6238078;23;20004;-93
2023/02/25 07:12:55;;;;;;;10.13;1.50;;;2.80;99.90;;;;;;6213384;23;20110;-96
2023/02/25 07:15:21;;;;;;;17.05;1.83;;;2.80;99.90;;;;;;6230762;23;20012;-94
2023/02/25 07:17:47;;;;;;;10.02;1.83;;;2.80;99.90;;;;;;6222699;23;20001;-93
2023/02/25 07:20:13;;;;;;;10.70;1.67;;;2.80;99.90;;;;;;6221724;23;20012;-94
2023/02/25 07:22:40;;;;;;;19.95;3.63;;;2.80;99.90;;;;;;6222539;23;20036;-94
2023/02/25 07:25:07;;;;;;;18.42;3.63;;;2.80;99.90;;;;;;6223175;23;20099;-95
2023/02/25 07:27:33;;;;;;;11.07;2.78;;;2.80;99.90;;;;;;6227609;23;20000;-92
2023/02/25 07:30:00;;;;;;;9.50;1.75;;;2.80;99.90;;;;;;6228660;23;20031;-92
2023/02/25 07:32:26;;;;;;;15.48;1.88;;;2.80;99.90;;;;;;6220606;23;20004;-91
2023/02/25 07:34:52;;;;;;;15.02;1.70;;;2.80;99.90;;;;;;6219784;23;20008;-92
2023/02/25 07:37:17;;;;;;;13.30;1.67;;;2.80;99.90;;;;;;6220161;23;20062;-94
2023/02/25 07:39:43;;;;;;;10.07;1.85;;;2.90;99.90;;;;;;6221439;23;20008;-94
2023/02/25 07:42:09;;;;;;;19.83;1.90;;;2.90;99.90;;;;;;6221681;23;20008;-92
2023/02/25 07:44:34;;;;;;;13.50;2.45;;;2.90;99.90;;;;;;6221087;23;20000;-92
2023/02/25 07:47:00;;;;;;;14.75;2.78;;;2.90;99.90;;;;;;6223645;23;20008;-92
2023/02/25 07:49:26;;;;;;;10.13;1.73;;;3.00;99.90;;;;;;6224251;23;20419;-92
2023/02/25 07:51:52;;;;;;;9.45;1.30;;;3.00;99.90;;;;;;6222973;23;20008;-94
2023/02/25 07:54:20;;;;;;;11.85;2.13;;;3.00;99.90;;;;;;6221394;23;20345;-95
2023/02/25 07:56:46;;;;;;;16.70;2.22;;;3.00;99.90;;;;;;6221618;23;20527;-94
2023/02/25 07:59:12;;;;;;;11.32;1.92;;;3.00;99.90;;;;;;6221921;23;20111;-93
2023/02/25 08:01:38;;;;;;;16.25;2.60;;;3.00;99.90;;;;;;6225305;23;20004;-94
2023/02/25 08:04:05;;;;;;;14.80;2.00;;;3.10;99.90;;;;;;6220793;23;20004;-93
2023/02/25 08:06:36;;;;;;;17.83;2.28;;;3.10;99.90;;;;;;6221400;23;20011;-94
2023/02/25 08:09:04;;;;;;;;;;;3.10;99.90;;;;;;6220628;23;20010;-93
2023/02/25 08:11:30;;;;;;;20.80;2.40;;;3.10;99.90;;;;;;6221407;23;19975;-94
2023/02/25 08:13:55;;;;;;;21.30;2.40;;;3.10;99.90;;;;;;6222585;23;20014;-94
2023/02/25 08:16:21;;;;;;;14.80;1.85;;;3.10;99.90;;;;;;6222946;23;20059;-94
2023/02/25 08:18:48;;;;;;;14.38;1.60;;;3.10;99.90;;;;;;6221001;23;20015;-94
2023/02/25 08:21:16;;;;;;;20.42;2.35;;;3.20;99.90;;;;;;6219895;23;20083;-94
2023/02/25 08:23:43;;;;;;;18.67;2.33;;;3.20;99.90;;;;;;6219858;23;20004;-92
2023/02/25 08:26:09;;;;;;;20.90;2.30;;;3.20;99.90;;;;;;6220346;23;20424;-92
2023/02/25 08:28:35;;;;;;;10.27;2.25;;;3.30;99.90;;;;;;6246381;23;20084;-94
2023/02/25 08:31:02;;;;;;;9.95;1.75;;;3.40;99.90;;;;;;6219785;23;20040;-93
2023/02/25 08:33:28;;;;;;;13.07;1.75;;;3.50;99.90;;;;;;6220019;23;20470;-92
2023/02/25 08:35:54;;;;;;;11.48;1.92;;;3.50;99.90;;;;;;6219465;23;20004;-93
2023/02/25 08:38:20;;;;;;;11.60;2.15;;;3.60;99.90;;;;;;6220250;23;20071;-92
2023/02/25 08:40:46;;;;;;;17.65;3.88;;;3.60;99.90;;;;;;6219560;23;20039;-90
2023/02/25 08:43:12;;;;;;;10.18;1.75;;;3.70;99.90;;;;;;6219420;23;20008;-92
2023/02/25 08:45:40;;;;;;;9.32;1.50;;;3.70;99.90;;;;;;6220003;23;20043;-94
2023/02/25 08:48:06;;;;;;;16.90;2.20;;;3.70;99.90;;;;;;6221727;23;20009;-92
2023/02/25 08:50:31;;;;;;;11.50;1.95;;;3.80;99.90;;;;;;6221540;23;20011;-94
2023/02/25 08:52:57;;;;;;;10.32;1.42;;;3.80;99.90;;;;;;6221103;23;20024;-93
2023/02/25 08:55:24;;;;;;;13.90;2.25;;;3.90;99.90;;;;;;6221136;23;20062;-92
2023/02/25 08:57:51;;;;;;;10.05;2.22;;;3.90;99.90;;;;;;6221956;23;20031;-92
2023/02/25 09:00:17;;;;;;;12.25;1.92;;;4.00;99.90;;;;;;6221643;23;20008;-93
2023/02/25 09:02:43;;;;;;;9.90;3.35;;;4.10;99.90;;;;;;6230622;23;19996;-91
2023/02/25 09:05:10;;;;;;;7.28;1.58;;;4.10;99.90;;;;;;6235477;23;20022;-93
2023/02/25 09:07:35;;;;;;;12.68;2.20;;;4.20;99.90;;;;;;6228785;23;19996;-92
2023/02/25 09:10:03;;;;;;;15.77;2.10;;;4.30;99.90;;;;;;6225127;23;20020;-92
2023/02/25 09:12:29;;;;;;;10.55;1.85;;;4.40;99.90;;;;;;6224600;23;20036;-90
2023/02/25 09:14:55;;;;;;;17.20;2.40;;;4.50;99.90;;;;;;6250320;23;20026;-92
2023/02/25 09:17:21;;;;;;;13.07;3.80;;;4.50;99.90;;;;;;6223572;23;20012;-92
2023/02/25 09:19:46;;;;;;;10.82;1.98;;;4.50;99.90;;;;;;6223654;23;20004;-91
2023/02/25 09:22:12;;;;;;;17.30;2.83;;;4.50;99.90;;;;;;6228483;23;19985;-92
2023/02/25 09:24:38;;;;;;;10.52;1.83;;;4.50;99.90;;;;;;6229851;23;20012;-91
2023/02/25 09:27:07;;;;;;;10.27;1.55;;;4.40;99.90;;;;;;6221490;23;20491;-92
2023/02/25 09:29:34;;;;;;;4.97;1.30;;;4.40;99.90;;;;;;6219700;23;20073;-92
2023/02/25 09:32:00;;;;;;;12.52;2.00;;;4.40;99.90;;;;;;6232452;23;20020;-90
2023/02/25 09:34:26;;;;;;;8.80;1.35;;;4.50;99.90;;;;;;6236873;23;20034;-92
2023/02/25 09:36:51;;;;;;;10.18;1.83;;;4.50;99.90;;;;;;6237261;23;20007;-90
2023/02/25 09:39:17;;;;;;;22.40;2.00;;;4.50;99.90;;;;;;6225169;23;20015;-92
2023/02/25 09:41:56;;;;;;;8.93;1.30;;;4.50;99.90;;;;;;6221990;23;20004;-92
2023/02/25 09:44:56;;;;;;;9.93;1.60;;;4.50;99.90;;;;;;6222945;23;20008;-90
2023/02/25 09:47:22;;;;;;;12.00;2.08;;;4.50;99.90;;;;;;6144213;23;20083;-90
2023/02/25 09:50:01;;;;;;;8.98;1.77;;;4.50;99.90;;;;;;6221538;23;20008;-91
2023/02/25 09:52:32;;;;;;;10.40;2.45;;;4.50;99.90;;;;;;6223234;23;20016;-90
2023/02/25 09:55:04;;;;;;;9.00;2.13;;;4.50;99.90;;;;;;6220868;23;20008;-91
2023/02/25 09:57:37;;;;;;;11.60;2.15;;;4.50;99.90;;;;;;6220389;23;20004;-92
2023/02/25 10:00:11;;;;;;;7.75;1.80;;;4.50;99.90;;;;;;6221342;23;20028;-91
2023/02/25 10:02:45;;;;;;;6.32;1.23;;;4.60;99.90;;;;;;6222529;23;20007;-92
2023/02/25 10:05:20;;;;;;;11.77;1.55;;;4.60;99.90;;;;;;6248041;23;20043;-91
2023/02/25 10:08:22;;;;;;;13.80;1.30;;;4.60;99.90;;;;;;6220716;23;20424;-91
2023/02/25 10:11:00;;;;;;;11.85;1.70;;;4.70;99.90;;;;;;6220873;23;20090;-89
2023/02/25 10:14:07;;;;;;;17.17;2.30;;;4.70;99.90;;;;;;6220918;23;20020;-92
2023/02/25 10:17:19;;;;;;;12.05;1.90;;;4.80;99.90;;;;;;6194353;23;20030;-90
2023/02/25 10:19:52;;;;;;;12.85;1.98;;;4.80;99.90;;;;;;6152712;23;20008;-91
2023/02/25 10:22:29;;;;;;;14.38;1.83;;;4.90;99.90;;;;;;6219929;23;20091;-90
2023/02/25 10:25:10;;;;;;;8.35;2.10;;;4.90;99.90;;;;;;6219960;23;20012;-91
2023/02/25 10:27:40;;;;;;;10.05;1.88;;;4.90;99.90;;;;;;6220561;23;20004;-89
2023/02/25 10:30:18;;;;;;;12.85;1.92;;;4.90;99.90;;;;;;6220869;23;20008;-90
2023/02/25 10:32:45;;;;;;;7.65;1.25;;;4.90;99.90;;;;;;6220158;23;20008;-89
2023/02/25 10:35:16;;;;;;;14.48;1.73;;;5.00;99.90;;;;;;6220042;23;20391;-90
2023/02/25 10:37:42;;;;;;;10.07;1.73;;;5.00;99.90;;;;;;6221707;23;20026;-92
2023/02/25 10:40:18;;;;;;;13.95;1.70;;;5.00;99.90;;;;;;6219775;23;20599;-91
2023/02/25 10:42:49;;;;;;;10.32;1.92;;;5.00;99.90;;;;;;6219729;23;20004;-91
2023/02/25 10:45:27;;;;;;;17.38;1.67;;;5.10;99.90;;;;;;6194370;23;20012;-91
2023/02/25 10:48:20;;;;;;;10.63;1.92;;;5.10;99.90;;;;;;6220066;23;20075;-91
2023/02/25 10:51:11;;;;;;;14.60;1.95;;;5.20;99.90;;;;;;6220431;23;20178;-92
2023/02/25 10:53:39;;;;;;;16.38;2.05;;;5.20;99.90;;;;;;6220002;23;20011;-91
2023/02/25 10:56:06;;;;;;;17.92;2.75;;;5.20;99.90;;;;;;6219285;23;20008;-91
2023/02/25 10:58:34;;;;;;;17.92;3.38;;;5.30;99.90;;;;;;6220037;23;20031;-91
2023/02/25 11:01:14;;;;;;;12.60;2.72;;;5.30;99.90;;;;;;6219836;23;20007;-91
2023/02/25 11:03:51;;;;;;;18.60;2.67;;;5.30;99.90;;;;;;6220005;23;20012;-91
2023/02/25 11:06:24;;;;;;;16.02;2.22;;;5.40;99.90;;;;;;6219516;23;20074;-91
2023/02/25 11:08:53;;;;;;;17.25;2.58;;;5.40;99.90;;;;;;6247065;23;20000;-91
2023/02/25 11:11:22;;;;;;;15.25;2.33;;;5.50;99.90;;;;;;6219781;23;20091;-91
2023/02/25 11:14:18;;;;;;;15.65;2.08;;;5.50;99.90;;;;;;6220733;23;20046;-91
2023/02/25 11:16:45;;;;;;;11.25;1.83;;;5.50;99.90;;;;;;6225643;23;20005;-91
2023/02/25 11:19:26;;;;;;;20.98;2.13;;;5.60;99.90;;;;;;6229067;23;20013;-91
2023/02/25 11:21:53;;;;;;;17.67;3.67;;;5.70;99.90;;;;;;6231298;23;20004;-91
2023/02/25 11:24:32;;;;;;;19.92;3.05;;;5.70;99.90;;;;;;6233369;23;20008;-92
2023/02/25 11:26:58;;;;;;;13.73;1.92;;;5.70;99.90;;;;;;6232445;23;20014;-90
2023/02/25 11:29:33;;;;;;;19.13;2.47;;;5.80;99.90;;;;;;6230775;23;20007;-91
2023/02/25 11:32:08;;;;;;;12.55;1.88;;;5.70;99.90;;;;;;6227286;23;20091;-92
2023/02/25 11:34:46;;;;;;;17.48;2.22;;;5.70;99.90;;;;;;6226765;23;20020;-93
2023/02/25 11:37:38;;;;;;;9.73;2.05;;;5.70;99.90;;;;;;6223531;23;20038;-91
2023/02/25 11:40:26;;;;;;;11.43;2.92;;;5.60;99.90;;;;;;6220794;23;20000;-92
2023/02/25 11:43:04;;;;;;;13.52;2.72;;;5.70;99.90;;;;;;6221902;23;20008;-91
2023/02/25 11:45:37;;;;;;;18.63;2.20;;;5.60;99.90;;;;;;6222176;23;20011;-92
2023/02/25 11:48:15;;;;;;;14.13;2.17;;;5.60;99.90;;;;;;6221425;23;20007;-92
2023/02/25 11:51:08;;;;;;;17.00;1.77;;;5.70;99.90;;;;;;6221105;23;20418;-92
2023/02/25 11:53:40;;;;;;;9.50;1.73;;;5.80;99.90;;;;;;6247664;23;20079;-91
2023/02/25 11:56:17;;;;;;;18.60;1.73;;;5.80;99.90;;;;;;6221294;23;20054;-92
2023/02/25 11:58:52;;;;;;;12.23;1.60;;;6.00;99.90;;;;;;6220946;23;20020;-92
2023/02/25 12:01:36;;;;;;;11.23;2.25;;;6.00;99.90;;;;;;6220938;23;20004;-90
2023/02/25 12:04:08;;;;;;;12.15;1.75;;;6.10;99.90;;;;;;6221441;23;20079;-89
2023/02/25 12:06:57;;;;;;;11.45;1.65;;;6.20;99.90;;;;;;6221265;23;20353;-91
2023/02/25 12:10:16;;;;;;;7.43;1.90;;;6.30;99.90;;;;;;6220256;23;20004;-91
2023/02/25 12:13:06;;;;;;;7.50;1.83;;;6.40;99.90;;;;;;6096168;23;20561;-92
2023/02/25 12:15:53;;;;;;;10.68;1.98;;;6.50;99.90;;;;;;6072773;23;20084;-91
2023/02/25 12:18:42;;;;;;;8.93;1.58;;;6.60;99.90;;;;;;6071364;23;20007;-92
2023/02/25 12:21:44;;;;;;;5.82;1.83;;;6.70;99.90;;;;;;6070067;23;20014;-91
2023/02/25 12:24:27;;;;;;;11.20;1.92;;;6.80;99.90;;;;;;6069932;23;20064;-90
2023/02/25 12:26:52;;;;;;;11.48;2.20;;;6.80;99.90;;;;;;6070788;23;20018;-91
2023/02/25 12:29:46;;;;;;;12.00;1.60;;;6.80;99.90;;;;;;6071263;23;20006;-90
2023/02/25 12:32:45;;;;;;;20.23;2.03;;;6.80;99.90;;;;;;6070461;23;20017;-91
2023/02/25 12:35:54;;;;;;;7.47;1.48;;;6.70;99.90;;;;;;6070486;23;20018;-89
2023/02/25 12:38:50;;;;;;;11.40;1.58;;;6.70;99.90;;;;;;6070709;23;20045;-91
2023/02/25 12:41:30;;;;;;;10.63;1.70;;;6.70;99.90;;;;;;6070893;23;19998;-90
2023/02/25 12:44:24;;;;;;;15.82;2.28;;;6.70;99.90;;;;;;6071350;23;20067;-92
2023/02/25 12:47:09;;;;;;;9.20;1.52;;;6.70;99.90;;;;;;6177685;23;20020;-90
2023/02/25 12:49:35;;;;;;;10.10;1.55;;;6.60;99.90;;;;;;6236902;23;19996;-89
2023/02/25 12:52:13;;;;;;;12.48;1.70;;;6.60;99.90;;;;;;6235587;23;20020;-90
2023/02/25 12:54:53;;;;;;;14.68;1.98;;;6.60;99.90;;;;;;6223806;23;20015;-92
2023/02/25 12:57:25;;;;;;;12.43;1.85;;;6.60;99.90;;;;;;6219611;23;20012;-91
2023/02/25 13:00:21;;;;;;;9.48;3.08;;;6.50;99.90;;;;;;6219082;23;20008;-91
2023/02/25 13:03:20;;;;;;;10.40;2.20;;;6.40;99.90;;;;;;6219510;23;20313;-94
2023/02/25 13:06:09;;;;;;;13.35;2.63;;;6.20;99.90;;;;;;6220173;23;20012;-94
2023/02/25 13:08:53;;;;;;;11.50;2.77;;;6.10;99.90;;;;;;6218864;23;20527;-93
2023/02/25 13:11:36;;;;;;;10.98;2.25;;;6.10;99.90;;;;;;6219436;23;20071;-93